Terminal Aerodrome Forecast
Issued by NWS Tampa Bay Area, FL

Home | Current Version | Previous Version | Text Only | Print | Product List | Glossary On
Versions: 1 2 3 4 5 6 7 8 9 10 11 12 13
000
FTUS42 KTBW 281100
TAFSRQ
TAF
KSRQ 281140Z 2812/2912 10007KT P6SM FEW080
     FM281500 12008KT P6SM SCT035 SCT080
     FM281900 22007KT P6SM VCTS SCT030CB BKN050
     FM282100 25007KT P6SM VCTS SCT030CB BKN050
     FM290000 VRB05KT P6SM VCSH BKN050
     FM290300 13005KT P6SM SCT050 BKN250=

USA.gov is the U.S. government's official web portal to all federal, state and local government web resources and services.